createdAt,value
2023-11-12T00:02:24.960Z,99545.81
2023-11-12T00:04:51.417Z,99545.88
2023-11-12T00:07:17.873Z,99537.97
2023-11-12T00:09:45.810Z,99543.03
2023-11-12T00:12:12.889Z,99548.34
2023-11-12T00:14:41.629Z,99548.34
2023-11-12T00:17:08.590Z,99548.25
2023-11-12T00:19:35.140Z,99550.00
2023-11-12T00:22:01.542Z,99551.94
2023-11-12T00:24:29.324Z,99538.88
2023-11-12T00:26:55.776Z,99540.59
2023-11-12T00:29:22.148Z,99538.81
2023-11-12T00:31:48.680Z,99532.91
2023-11-12T00:34:15.185Z,99528.44
2023-11-12T00:36:43.867Z,99526.75
2023-11-12T00:39:10.755Z,99524.22
2023-11-12T00:41:40.390Z,99530.31
2023-11-12T00:44:08.724Z,99525.91
2023-11-12T00:46:35.296Z,99524.16
2023-11-12T00:49:03.634Z,99518.09
2023-11-12T00:51:30.502Z,99509.34
2023-11-12T00:53:56.840Z,99509.31
2023-11-12T00:56:23.716Z,99512.88
2023-11-12T00:58:50.605Z,99511.13
2023-11-12T01:01:18.769Z,99509.44
2023-11-12T01:03:45.636Z,99500.97
2023-11-12T01:06:12.993Z,99498.44
2023-11-12T01:08:40.550Z,99494.16
2023-11-12T01:11:07.012Z,99491.53
2023-11-12T01:13:34.591Z,99499.34
2023-11-12T01:16:02.037Z,99497.59
2023-11-12T01:18:29.431Z,99485.56
2023-11-12T01:20:55.895Z,99487.50
2023-11-12T01:23:23.329Z,99480.50
2023-11-12T01:25:49.739Z,99477.03
2023-11-12T01:28:16.351Z,99473.69
2023-11-12T01:30:42.771Z,99476.28
2023-11-12T01:33:09.226Z,99472.91
2023-11-12T01:35:35.870Z,99464.22
2023-11-12T01:38:02.268Z,99457.94
2023-11-12T01:40:29.346Z,99468.28
2023-11-12T01:42:56.033Z,99473.34
2023-11-12T01:45:23.196Z,99470.84
2023-11-12T01:47:50.895Z,99471.72
2023-11-12T01:50:19.745Z,99462.31
2023-11-12T01:52:48.304Z,99475.28
2023-11-12T01:55:15.609Z,99466.81
2023-11-12T01:57:44.375Z,99469.38
2023-11-12T02:00:13.257Z,99458.91
2023-11-12T02:02:40.522Z,99460.09
2023-11-12T02:05:07.917Z,99467.16
2023-11-12T02:07:36.146Z,99463.53
2023-11-12T02:10:09.464Z,99462.34
2023-11-12T02:12:44.862Z,99457.25
2023-11-12T02:15:15.050Z,99445.88
2023-11-12T02:17:45.237Z,99443.25
2023-11-12T02:20:15.413Z,99430.31
2023-11-12T02:22:42.829Z,99422.56
2023-11-12T02:25:09.547Z,99414.94
2023-11-12T02:27:36.041Z,99412.13
2023-11-12T02:30:04.450Z,99399.97
2023-11-12T02:32:33.382Z,99398.19
2023-11-12T02:35:01.567Z,99405.47
2023-11-12T02:37:27.971Z,99402.06
2023-11-12T02:39:54.405Z,99394.38
2023-11-12T02:42:21.628Z,99396.91
2023-11-12T02:44:47.965Z,99391.53
2023-11-12T02:47:14.500Z,99403.72
2023-11-12T02:50:08.129Z,99406.22
2023-11-12T02:52:35.197Z,99399.19
2023-11-12T02:55:01.902Z,99390.53
2023-11-12T02:57:28.799Z,99395.81
2023-11-12T02:59:55.610Z,99395.16
2023-11-12T03:02:23.401Z,99400.28
2023-11-12T03:04:50.696Z,99403.81
2023-11-12T03:07:19.751Z,99412.47
2023-11-12T03:09:46.799Z,99406.31
2023-11-12T03:12:13.290Z,99403.59
2023-11-12T03:14:39.669Z,99406.31
2023-11-12T03:17:06.026Z,99405.38
2023-11-12T03:19:35.786Z,99402.66
2023-11-12T03:22:02.274Z,99423.34
2023-11-12T03:24:28.688Z,99431.09
2023-11-12T03:26:55.344Z,99433.13
2023-11-12T03:29:24.341Z,99432.16
2023-11-12T03:31:51.929Z,99432.97
2023-11-12T03:34:18.422Z,99440.72
2023-11-12T03:36:45.051Z,99450.03
2023-11-12T03:39:11.651Z,99453.50
2023-11-12T03:41:38.897Z,99469.16
2023-11-12T03:44:05.825Z,99460.47
2023-11-12T03:46:32.409Z,99460.31
2023-11-12T03:48:58.792Z,99471.66
2023-11-12T03:51:25.523Z,99478.59
2023-11-12T03:53:51.978Z,99485.72
2023-11-12T03:56:19.155Z,99485.63
2023-11-12T03:58:46.103Z,99476.06
2023-11-12T04:01:12.537Z,99470.09
2023-11-12T04:03:39.775Z,99461.38
2023-11-12T04:06:06.688Z,99464.00
2023-11-12T04:08:34.712Z,99458.69
2023-11-12T04:11:01.326Z,99460.41
2023-11-12T04:13:27.715Z,99454.44
2023-11-12T04:15:54.444Z,99459.50
2023-11-12T04:18:20.924Z,99456.72
2023-11-12T04:20:47.355Z,99460.34
2023-11-12T04:23:13.939Z,99463.63
2023-11-12T04:25:40.315Z,99466.25
2023-11-12T04:28:06.664Z,99463.66
2023-11-12T04:30:33.856Z,99459.16
2023-11-12T04:33:00.962Z,99462.78
2023-11-12T04:35:27.655Z,99462.88
2023-11-12T04:37:54.272Z,99460.25
2023-11-12T04:40:22.124Z,99456.81
2023-11-12T04:42:49.640Z,99455.03
2023-11-12T04:45:19.417Z,99456.59
2023-11-12T04:47:46.480Z,99454.81
2023-11-12T04:50:13.614Z,99446.03
2023-11-12T04:52:40.915Z,99444.31
2023-11-12T04:55:08.705Z,99454.69
2023-11-12T04:57:35.247Z,99454.69
2023-11-12T05:00:02.235Z,99449.44
2023-11-12T05:02:28.602Z,99444.28
2023-11-12T05:04:55.148Z,99451.19
2023-11-12T05:07:21.662Z,99453.94
2023-11-12T05:09:48.228Z,99448.56
2023-11-12T05:12:16.195Z,99448.59
2023-11-12T05:14:42.717Z,99439.19
2023-11-12T05:17:09.095Z,99440.06
2023-11-12T05:19:36.249Z,99433.22
2023-11-12T05:22:02.704Z,99432.19
2023-11-12T05:24:29.289Z,99423.41
2023-11-12T05:26:55.708Z,99424.16
2023-11-12T05:29:22.263Z,99427.47
2023-11-12T05:31:49.278Z,99434.75
2023-11-12T05:34:15.949Z,99438.91
2023-11-12T05:36:42.772Z,99444.75
2023-11-12T05:39:13.865Z,99444.91
2023-11-12T05:41:40.301Z,99446.66
2023-11-12T05:44:08.290Z,99449.97
2023-11-12T05:46:34.679Z,99436.88
2023-11-12T05:49:01.250Z,99444.81
2023-11-12T05:51:27.759Z,99448.19
2023-11-12T05:53:54.269Z,99449.13
2023-11-12T05:56:21.042Z,99445.72
2023-11-12T05:58:47.876Z,99442.97
2023-11-12T06:01:14.457Z,99436.16
2023-11-12T06:03:41.269Z,99438.88
2023-11-12T06:06:07.702Z,99430.22
2023-11-12T06:08:34.061Z,99433.69
2023-11-12T06:11:01.204Z,99437.84
2023-11-12T06:13:27.559Z,99440.22
2023-11-12T06:15:53.892Z,99431.59
2023-11-12T06:18:20.273Z,99440.94
2023-11-12T06:20:46.995Z,99443.50
2023-11-12T06:23:13.528Z,99447.78
2023-11-12T06:25:39.892Z,99453.69
2023-11-12T06:28:06.313Z,99458.16
2023-11-12T06:30:32.743Z,99457.50
2023-11-12T06:33:00.364Z,99459.19
2023-11-12T06:35:27.046Z,99456.56
2023-11-12T06:37:53.731Z,99458.19
2023-11-12T06:40:20.324Z,99460.63
2023-11-12T06:42:46.818Z,99451.03
2023-11-12T06:45:14.477Z,99452.94
2023-11-12T06:47:41.680Z,99448.44
2023-11-12T06:50:08.563Z,99454.44
2023-11-12T06:52:35.272Z,99454.50
2023-11-12T06:55:04.431Z,99455.97
2023-11-12T06:57:31.263Z,99461.13
2023-11-12T06:59:57.926Z,99465.38
2023-11-12T07:02:24.435Z,99473.16
2023-11-12T07:04:51.038Z,99479.03
2023-11-12T07:07:17.553Z,99479.66
2023-11-12T07:09:45.677Z,99487.41
2023-11-12T07:12:12.432Z,99495.09
2023-11-12T07:14:38.847Z,99502.72
2023-11-12T07:17:05.372Z,99509.53
2023-11-12T07:19:32.094Z,99524.41
2023-11-12T07:21:59.691Z,99523.44
2023-11-12T07:24:26.144Z,99541.34
2023-11-12T07:26:52.496Z,99536.97
2023-11-12T07:29:19.085Z,99539.50
2023-11-12T07:31:46.039Z,99537.69
2023-11-12T07:34:12.644Z,99550.50
2023-11-12T07:36:39.282Z,99552.91
2023-11-12T07:39:10.615Z,99563.19
2023-11-12T07:41:38.572Z,99563.97
2023-11-12T07:44:09.260Z,99573.63
2023-11-12T07:46:41.027Z,99585.84
2023-11-12T07:49:07.825Z,99585.06
2023-11-12T07:51:35.931Z,99585.06
2023-11-12T07:54:02.365Z,99584.03
2023-11-12T07:56:34.313Z,99583.97
2023-11-12T07:59:05.749Z,99579.53
2023-11-12T08:01:32.323Z,99578.69
2023-11-12T08:03:58.800Z,99578.53
2023-11-12T08:06:27.521Z,99577.69
2023-11-12T08:08:54.813Z,99583.66
2023-11-12T08:11:21.633Z,99589.72
2023-11-12T08:13:48.760Z,99592.38
2023-11-12T08:16:15.279Z,99595.69
2023-11-12T08:18:41.772Z,99605.94
2023-11-12T08:21:08.642Z,99605.84
2023-11-12T08:23:35.303Z,99611.72
2023-11-12T08:26:03.418Z,99613.28
2023-11-12T08:28:30.528Z,99620.09
2023-11-12T08:30:56.973Z,99621.06
2023-11-12T08:33:23.584Z,99628.97
2023-11-12T08:35:49.993Z,99627.09
2023-11-12T08:38:16.566Z,99628.69
2023-11-12T08:40:44.434Z,99633.75
2023-11-12T08:43:11.270Z,99641.50
2023-11-12T08:45:37.907Z,99646.69
2023-11-12T08:48:04.724Z,99656.28
2023-11-12T08:50:31.114Z,99657.25
2023-11-12T08:52:58.131Z,99671.13
2023-11-12T08:55:24.525Z,99674.75
2023-11-12T08:57:50.916Z,99675.53
2023-11-12T09:00:19.473Z,99681.59
2023-11-12T09:02:47.519Z,99680.00
2023-11-12T09:05:14.315Z,99686.25
2023-11-12T09:07:40.771Z,99693.06
2023-11-12T09:10:07.965Z,99700.78
2023-11-12T09:12:34.729Z,99693.66
2023-11-12T09:15:02.117Z,99697.94
2023-11-12T09:17:28.621Z,99704.91
2023-11-12T09:19:54.993Z,99710.13
2023-11-12T09:22:21.398Z,99721.31
2023-11-12T09:25:00.709Z,99721.25
2023-11-12T09:27:34.820Z,99722.88
2023-11-12T09:30:01.772Z,99726.50
2023-11-12T09:32:28.453Z,99732.53
2023-11-12T09:34:54.927Z,99730.84
2023-11-12T09:37:21.307Z,99730.06
2023-11-12T09:39:47.684Z,99734.22
2023-11-12T09:42:22.812Z,99743.66
2023-11-12T09:44:50.281Z,99737.41
2023-11-12T09:47:31.769Z,99746.25
2023-11-12T09:49:58.813Z,99749.88
2023-11-12T09:52:26.339Z,99746.25
2023-11-12T09:54:53.517Z,99749.53
2023-11-12T09:57:20.034Z,99753.66
2023-11-12T09:59:46.792Z,99758.13
2023-11-12T10:02:14.065Z,99761.63
2023-11-12T10:04:44.389Z,99765.13
2023-11-12T10:07:12.542Z,99773.78
2023-11-12T10:09:40.119Z,99773.69
2023-11-12T10:12:07.613Z,99774.53
2023-11-12T10:14:34.456Z,99785.91
2023-11-12T10:17:08.411Z,99778.84
2023-11-12T10:19:38.605Z,99786.44
2023-11-12T10:22:08.310Z,99806.38
2023-11-12T10:24:45.358Z,99820.38
2023-11-12T10:27:13.523Z,99822.84
2023-11-12T10:29:42.195Z,99818.44
2023-11-12T10:32:09.069Z,99828.09
2023-11-12T10:34:35.568Z,99833.38
2023-11-12T10:37:10.773Z,99832.50
2023-11-12T10:39:48.198Z,99845.63
2023-11-12T10:42:24.753Z,99839.47
2023-11-12T10:44:59.495Z,99837.69
2023-11-12T10:47:31.556Z,99828.81
2023-11-12T10:50:00.663Z,99825.16
2023-11-12T10:52:31.157Z,99832.13
2023-11-12T10:55:01.031Z,99833.03
2023-11-12T10:57:28.455Z,99834.78
2023-11-12T10:59:56.352Z,99843.28
2023-11-12T11:02:31.072Z,99849.50
2023-11-12T11:04:58.218Z,99845.09
2023-11-12T11:07:24.944Z,99841.41
2023-11-12T11:09:52.115Z,99832.66
2023-11-12T11:12:19.250Z,99844.78
2023-11-12T11:14:47.468Z,99853.47
2023-11-12T11:17:37.676Z,99844.13
2023-11-12T11:20:13.358Z,99852.09
2023-11-12T11:22:40.299Z,99840.75
2023-11-12T11:25:32.349Z,99842.97
2023-11-12T11:28:18.846Z,99839.47
2023-11-12T11:31:20.790Z,99852.63
2023-11-12T11:33:49.215Z,99863.00
2023-11-12T11:36:18.921Z,99868.22
2023-11-12T11:39:12.228Z,99876.09
2023-11-12T11:41:54.380Z,99887.56
2023-11-12T11:44:33.107Z,99887.53
2023-11-12T11:47:19.302Z,99890.06
2023-11-12T11:49:58.917Z,99895.13
2023-11-12T11:52:27.743Z,99902.00
2023-11-12T11:55:05.997Z,99893.31
2023-11-12T11:57:33.006Z,99907.97
2023-11-12T12:00:00.809Z,99899.06
2023-11-12T12:02:27.750Z,99909.50
2023-11-12T12:04:58.472Z,99900.56
2023-11-12T12:07:27.743Z,99908.59
2023-11-12T12:09:59.589Z,99912.91
2023-11-12T12:12:27.626Z,99912.84
2023-11-12T12:14:55.803Z,99910.19
2023-11-12T12:17:22.574Z,99913.88
2023-11-12T12:19:53.844Z,99906.22
2023-11-12T12:22:29.218Z,99909.47
2023-11-12T12:24:58.393Z,99911.13
2023-11-12T12:27:26.011Z,99909.38
2023-11-12T12:29:54.076Z,99905.94
2023-11-12T12:32:21.540Z,99910.63
2023-11-12T12:34:57.265Z,99914.97
2023-11-12T12:37:30.395Z,99915.69
2023-11-12T12:40:11.732Z,99908.75
2023-11-12T12:42:38.528Z,99914.94
2023-11-12T12:45:13.671Z,99912.94
2023-11-12T12:47:42.919Z,99910.09
2023-11-12T12:50:16.874Z,99915.31
2023-11-12T12:52:47.844Z,99914.50
2023-11-12T12:55:18.446Z,99910.19
2023-11-12T12:57:50.962Z,99918.09
2023-11-12T13:00:19.071Z,99919.69
2023-11-12T13:02:48.105Z,99920.41
2023-11-12T13:05:20.141Z,99928.41
2023-11-12T13:07:50.697Z,99925.78
2023-11-12T13:10:21.833Z,99934.53
2023-11-12T13:12:53.848Z,99937.06
2023-11-12T13:15:22.297Z,99927.34
2023-11-12T13:17:49.795Z,99935.13
2023-11-12T13:20:16.284Z,99938.72
2023-11-12T13:22:42.908Z,99942.19
2023-11-12T13:25:16.786Z,99943.06
2023-11-12T13:27:47.143Z,99947.34
2023-11-12T13:30:14.286Z,99953.41
2023-11-12T13:32:41.484Z,99962.97
2023-11-12T13:35:09.544Z,99956.00
2023-11-12T13:37:36.059Z,99956.13
2023-11-12T13:40:15.289Z,99970.25
2023-11-12T13:42:43.648Z,99971.66
2023-11-12T13:45:15.108Z,99971.44
2023-11-12T13:47:41.740Z,99966.97
2023-11-12T13:50:12.381Z,99972.84
2023-11-12T13:52:44.016Z,99987.50
2023-11-12T13:55:18.932Z,99987.72
2023-11-12T13:57:47.000Z,99980.84
2023-11-12T14:00:16.830Z,99986.16
2023-11-12T14:02:43.616Z,99989.66
2023-11-12T14:05:10.151Z,100000.13
2023-11-12T14:07:42.210Z,100000.13
2023-11-12T14:10:15.422Z,100003.56
2023-11-12T14:12:44.204Z,100006.97
2023-11-12T14:15:16.337Z,100013.00
2023-11-12T14:17:45.141Z,100014.06
2023-11-12T14:20:12.552Z,100014.06
2023-11-12T14:22:41.205Z,100000.19
2023-11-12T14:25:14.816Z,100003.69
2023-11-12T14:27:42.132Z,99995.97
2023-11-12T14:30:14.775Z,100001.16
2023-11-12T14:32:41.399Z,100007.19
2023-11-12T14:35:08.131Z,100002.78
2023-11-12T14:37:34.722Z,100002.72
2023-11-12T14:40:06.256Z,100013.16
2023-11-12T14:42:33.030Z,100008.19
2023-11-12T14:44:59.560Z,100004.69
2023-11-12T14:47:26.276Z,99990.78
2023-11-12T14:49:53.003Z,99996.03
2023-11-12T14:52:19.625Z,100009.19
2023-11-12T14:54:46.120Z,100008.28
2023-11-12T14:57:12.756Z,100003.78
2023-11-12T14:59:41.191Z,100002.91
2023-11-12T15:02:09.339Z,100003.78
2023-11-12T15:04:35.980Z,99997.84
2023-11-12T15:07:02.714Z,100002.25
2023-11-12T15:09:30.226Z,100003.03
2023-11-12T15:11:56.659Z,99999.81
2023-11-12T15:14:23.667Z,100001.47
2023-11-12T15:16:50.409Z,100002.16
2023-11-12T15:19:17.068Z,100008.22
2023-11-12T15:21:43.661Z,100009.19
2023-11-12T15:24:12.210Z,100013.66
2023-11-12T15:26:43.175Z,100005.00
2023-11-12T15:29:09.641Z,100011.94
2023-11-12T15:31:36.491Z,100003.31
2023-11-12T15:34:05.899Z,100007.63
2023-11-12T15:36:34.370Z,100004.16
2023-11-12T15:39:01.651Z,100008.44
2023-11-12T15:41:28.354Z,99998.91
2023-11-12T15:43:56.553Z,99998.97
2023-11-12T15:46:23.355Z,99996.34
2023-11-12T15:48:49.818Z,99988.59
2023-11-12T15:51:18.193Z,99998.38
2023-11-12T15:53:45.540Z,100000.22
2023-11-12T15:56:14.506Z,99991.44
2023-11-12T15:58:42.365Z,99975.91
2023-11-12T16:01:09.317Z,99970.66
2023-11-12T16:03:37.775Z,99971.56
2023-11-12T16:06:05.778Z,99971.47
2023-11-12T16:08:32.173Z,99974.06
2023-11-12T16:10:58.575Z,99968.97
2023-11-12T16:13:25.151Z,99967.19
2023-11-12T16:15:52.003Z,99967.22
2023-11-12T16:18:18.489Z,99962.91
2023-11-12T16:20:45.089Z,99963.84
2023-11-12T16:23:11.743Z,99962.03
2023-11-12T16:25:38.112Z,99955.22
2023-11-12T16:28:04.888Z,99960.44
2023-11-12T16:30:31.640Z,99955.41
2023-11-12T16:32:59.147Z,99957.00
2023-11-12T16:35:25.954Z,99944.84
2023-11-12T16:37:53.221Z,99939.66
2023-11-12T16:40:20.446Z,99936.13
2023-11-12T16:42:49.268Z,99934.47
2023-11-12T16:45:16.698Z,99944.13
2023-11-12T16:47:43.196Z,99943.25
2023-11-12T16:50:10.258Z,99940.63
2023-11-12T16:52:38.008Z,99934.59
2023-11-12T16:55:07.559Z,99937.13
2023-11-12T16:57:34.076Z,99934.59
2023-11-12T17:00:00.686Z,99935.44
2023-11-12T17:02:29.068Z,99938.03
2023-11-12T17:04:56.155Z,99938.94
2023-11-12T17:07:22.598Z,99939.78
2023-11-12T17:09:49.632Z,99944.97
2023-11-12T17:12:16.289Z,99946.84
2023-11-12T17:14:43.224Z,99946.75
2023-11-12T17:17:09.734Z,99946.72
2023-11-12T17:19:36.686Z,99945.00
2023-11-12T17:22:03.679Z,99952.78
2023-11-12T17:24:30.134Z,99947.56
2023-11-12T17:26:56.630Z,99943.22
2023-11-12T17:29:22.997Z,99945.75
2023-11-12T17:31:50.679Z,99952.84
2023-11-12T17:34:18.053Z,99949.34
2023-11-12T17:36:44.580Z,99943.25
2023-11-12T17:39:14.442Z,99949.44
2023-11-12T17:41:40.897Z,99947.66
2023-11-12T17:44:08.649Z,99948.59
2023-11-12T17:46:35.072Z,99943.31
2023-11-12T17:49:02.244Z,99949.34
2023-11-12T17:51:28.923Z,99950.28
2023-11-12T17:53:55.434Z,99951.09
2023-11-12T17:56:23.444Z,99953.88
2023-11-12T17:58:50.037Z,99961.66
2023-11-12T18:01:19.215Z,99964.31
2023-11-12T18:03:46.844Z,99974.72
2023-11-12T18:06:13.431Z,99974.72
2023-11-12T18:08:39.843Z,99977.38
2023-11-12T18:11:06.814Z,99980.81
2023-11-12T18:13:37.442Z,99986.97
2023-11-12T18:16:05.534Z,99993.91
2023-11-12T18:18:32.524Z,99999.22
2023-11-12T18:21:00.415Z,100007.00
2023-11-12T18:23:26.810Z,99999.09
2023-11-12T18:25:53.530Z,100016.47
2023-11-12T18:28:21.293Z,100025.13
2023-11-12T18:30:49.554Z,100035.47
2023-11-12T18:33:17.201Z,100031.97
2023-11-12T18:35:45.097Z,100032.06
2023-11-12T18:38:12.788Z,100038.09
2023-11-12T18:40:41.759Z,100045.78
2023-11-12T18:43:08.324Z,100055.31
2023-11-12T18:45:34.853Z,100050.19
2023-11-12T18:48:09.493Z,100063.09
2023-11-12T18:50:39.907Z,100057.09
2023-11-12T18:53:07.694Z,100056.22
2023-11-12T18:55:34.497Z,100062.16
2023-11-12T18:58:00.867Z,100069.16
2023-11-12T19:00:27.342Z,100071.75
2023-11-12T19:02:57.124Z,100076.91
2023-11-12T19:05:23.967Z,100076.06
2023-11-12T19:07:50.642Z,100091.69
2023-11-12T19:10:24.215Z,100088.25
2023-11-12T19:12:51.187Z,100096.06
2023-11-12T19:15:18.073Z,100087.50
2023-11-12T19:17:45.512Z,100084.00
2023-11-12T19:20:14.268Z,100087.50
2023-11-12T19:22:41.527Z,100085.72
2023-11-12T19:25:10.142Z,100087.44
2023-11-12T19:27:37.026Z,100089.25
2023-11-12T19:30:13.725Z,100090.09
2023-11-12T19:32:42.127Z,100100.44
2023-11-12T19:35:09.184Z,100105.66
2023-11-12T19:37:38.458Z,100106.56
2023-11-12T19:40:05.360Z,100099.72
2023-11-12T19:42:31.788Z,100107.53
2023-11-12T19:44:59.368Z,100112.69
2023-11-12T19:47:27.976Z,100111.13
2023-11-12T19:49:56.150Z,100111.16
2023-11-12T19:52:22.627Z,100104.28
2023-11-12T19:54:49.109Z,100097.44
2023-11-12T19:57:16.280Z,100106.03
2023-11-12T19:59:42.869Z,100100.91
2023-11-12T20:02:10.753Z,100101.03
2023-11-12T20:04:38.847Z,100104.47
2023-11-12T20:07:05.471Z,100096.69
2023-11-12T20:09:32.756Z,100092.31
2023-11-12T20:12:02.069Z,100085.50
2023-11-12T20:14:29.671Z,100082.09
2023-11-12T20:16:59.585Z,100075.16
2023-11-12T20:19:28.557Z,100078.59
2023-11-12T20:21:56.422Z,100076.84
2023-11-12T20:24:23.042Z,100075.94
2023-11-12T20:26:51.715Z,100076.81
2023-11-12T20:29:21.820Z,100074.25
2023-11-12T20:31:55.098Z,100075.94
2023-11-12T20:34:23.472Z,100073.31
2023-11-12T20:36:51.357Z,100074.22
2023-11-12T20:39:18.280Z,100067.31
2023-11-12T20:41:45.815Z,100065.59
2023-11-12T20:44:13.475Z,100066.41
2023-11-12T20:46:47.590Z,100076.78
2023-11-12T20:49:19.331Z,100072.47
2023-11-12T20:51:47.010Z,100068.13
2023-11-12T20:54:14.652Z,100072.50
2023-11-12T20:56:41.602Z,100072.47
2023-11-12T20:59:11.182Z,100075.09
2023-11-12T21:01:38.261Z,100073.38
2023-11-12T21:04:07.694Z,100075.06
2023-11-12T21:06:37.068Z,100070.72
2023-11-12T21:09:04.037Z,100066.41
2023-11-12T21:11:34.111Z,100070.81
2023-11-12T21:14:01.637Z,100063.03
2023-11-12T21:16:28.341Z,100060.47
2023-11-12T21:18:55.882Z,100069.06
2023-11-12T21:21:22.930Z,100072.56
2023-11-12T21:23:49.310Z,100069.94
2023-11-12T21:26:15.804Z,100065.59
2023-11-12T21:28:45.487Z,100063.88
2023-11-12T21:31:15.070Z,100066.47
2023-11-12T21:33:45.842Z,100067.34
2023-11-12T21:36:12.769Z,100058.69
2023-11-12T21:38:40.031Z,100057.84
2023-11-12T21:41:07.609Z,100070.78
2023-11-12T21:43:35.940Z,100070.78
2023-11-12T21:46:03.045Z,100071.63
2023-11-12T21:48:29.746Z,100082.03
2023-11-12T21:50:56.286Z,100081.19
2023-11-12T21:53:26.496Z,100082.91
2023-11-12T21:55:53.537Z,100094.13
2023-11-12T21:58:20.384Z,100094.13
2023-11-12T22:00:46.836Z,100098.47
2023-11-12T22:03:15.969Z,100102.84
2023-11-12T22:05:44.087Z,100107.09
2023-11-12T22:08:11.300Z,100104.56
2023-11-12T22:10:39.138Z,100114.09
2023-11-12T22:13:06.796Z,100107.19
2023-11-12T22:15:33.252Z,100103.75
2023-11-12T22:18:00.032Z,100102.03
2023-11-12T22:20:29.071Z,100102.88
2023-11-12T22:22:57.173Z,100103.84
2023-11-12T22:25:26.679Z,100102.09
2023-11-12T22:27:54.674Z,100101.25
2023-11-12T22:30:23.051Z,100103.88
2023-11-12T22:32:54.651Z,100107.34
2023-11-12T22:35:21.702Z,100112.56
2023-11-12T22:37:48.698Z,100121.16
2023-11-12T22:40:16.180Z,100119.44
2023-11-12T22:42:43.096Z,100126.38
2023-11-12T22:45:10.992Z,100128.97
2023-11-12T22:47:39.142Z,100138.47
2023-11-12T22:50:08.290Z,100137.66
2023-11-12T22:52:35.256Z,100131.63
2023-11-12T22:55:04.117Z,100128.19
2023-11-12T22:57:33.720Z,100130.78
2023-11-12T23:00:05.864Z,100137.63
2023-11-12T23:02:33.539Z,100139.31
2023-11-12T23:05:00.040Z,100144.53
2023-11-12T23:07:27.822Z,100152.28
2023-11-12T23:09:54.231Z,100163.50
2023-11-12T23:12:21.978Z,100155.78
2023-11-12T23:14:52.129Z,100155.78
2023-11-12T23:17:22.409Z,100160.97
2023-11-12T23:19:49.057Z,100163.56
2023-11-12T23:22:15.833Z,100161.84
2023-11-12T23:24:42.288Z,100156.66
2023-11-12T23:27:08.761Z,100154.06
2023-11-12T23:29:35.909Z,100154.94
2023-11-12T23:32:07.444Z,100149.75
2023-11-12T23:34:36.716Z,100158.41
2023-11-12T23:37:05.944Z,100153.25
2023-11-12T23:39:32.472Z,100150.69
2023-11-12T23:41:58.852Z,100148.06
2023-11-12T23:44:25.936Z,100141.19
2023-11-12T23:46:52.328Z,100141.19
2023-11-12T23:49:19.024Z,100136.88
2023-11-12T23:51:45.795Z,100136.03
2023-11-12T23:54:12.670Z,100126.59
2023-11-12T23:56:39.300Z,100121.47
2023-11-12T23:59:06.140Z,100122.28
